Dades meteomassalio
Diari Summary for Febrer 3, 2017 Units:  Metric    English   Both
« Previous Day
Next Day »
Diari Semanal Mensual Anual Personalitzat
  Maxima: Minima: Mijana:
Temperatura: 17.5 °C 2.1 °C 8.7 °C
Rosada: 8.9 °C 1.1 °C 5.4 °C
Humitat: 94 % 49 % 82 %
Velocitat del vent: 46.3 km/h 0.0 km/h 3.5 km/h
Racha vent: 46.3 km/h - -
Vent:- - SW
Pressio: 1018.8 hPa 1013.4 hPa -
Pluja: 0.3 mm    
Historical Graphs
 
 
Tabular Data for Febrer 3, 2017
Time Temperature Dew Point Pressure Wind Wind Speed Wind Gust Humidity Rainfall Rate (Hourly) solar Conditions
00:02 7.5 °C 5.5 °C 1018.2 hPa WSW 5.6 km/h 5.6 km/h 87 % 0.0 mm 0.0 W/m2 RA
00:07 7.5 °C 5.5 °C 1018.2 hPa WSW 3.7 km/h 3.7 km/h 87 % 0.0 mm 0.0 W/m2 CLR
00:12 7.4 °C 5.3 °C 1018.2 hPa WSW 5.6 km/h 5.6 km/h 86 % 0.0 mm 0.0 W/m2 CLR
00:17 7.3 °C 5.3 °C 1018.2 hPa Calm     87 % 0.0 mm 0.0 W/m2 CLR
00:22 7.2 °C 5.2 °C 1018.2 hPa Calm     87 % 0.0 mm 0.0 W/m2 CLR
00:27 6.8 °C 4.8 °C 1018.2 hPa Calm     87 % 0.0 mm 0.0 W/m2 CLR
00:32 6.6 °C 4.7 °C 1018.2 hPa Calm     88 % 0.0 mm 0.0 W/m2 CLR
00:37 6.6 °C 4.9 °C 1018.2 hPa Calm     89 % 0.0 mm 0.0 W/m2 CLR
00:42 6.6 °C 4.9 °C 1018.2 hPa Calm     89 % 0.0 mm 0.0 W/m2 CLR
00:47 6.6 °C 4.9 °C 1018.2 hPa Calm     89 % 0.0 mm 0.0 W/m2 CLR
00:52 6.4 °C 4.8 °C 1018.2 hPa Calm     89 % 0.0 mm 0.0 W/m2 CLR
00:57 6.3 °C 4.6 °C 1018.5 hPa Calm     89 % 0.0 mm 0.0 W/m2 CLR
01:02 6.1 °C 4.4 °C 1018.5 hPa Calm     89 % 0.0 mm 0.0 W/m2 CLR
01:07 5.9 °C 4.4 °C 1018.5 hPa Calm     90 % 0.0 mm 0.0 W/m2 CLR
01:12 5.9 °C 4.4 °C 1018.5 hPa Calm     90 % 0.0 mm 0.0 W/m2 CLR
01:17 5.5 °C 3.8 °C 1018.5 hPa Calm     89 % 0.0 mm 0.0 W/m2 CLR
01:22 5.4 °C 4.1 °C 1018.5 hPa Calm     91 % 0.0 mm 0.0 W/m2 CLR
01:27 5.3 °C 4.0 °C 1018.5 hPa Calm     91 % 0.0 mm 0.0 W/m2 CLR
01:32 5.2 °C 3.9 °C 1018.5 hPa Calm     91 % 0.0 mm 0.0 W/m2 CLR
01:37 5.2 °C 3.8 °C 1018.5 hPa Calm     91 % 0.0 mm 0.0 W/m2 CLR
01:42 5.1 °C 3.9 °C 1018.5 hPa Calm     92 % 0.0 mm 0.0 W/m2 CLR
01:47 5.0 °C 3.7 °C 1018.5 hPa Calm     91 % 0.0 mm 0.0 W/m2 CLR
01:52 4.8 °C 3.5 °C 1018.5 hPa Calm     91 % 0.0 mm 0.0 W/m2 CLR
01:57 4.6 °C 3.3 °C 1018.5 hPa Calm     91 % 0.0 mm 0.0 W/m2 CLR
02:02 4.5 °C 3.3 °C 1018.5 hPa Calm     92 % 0.0 mm 0.0 W/m2 CLR
02:07 4.4 °C 3.2 °C 1018.5 hPa Calm     92 % 0.0 mm 0.0 W/m2 CLR
02:12 4.3 °C 3.1 °C 1018.5 hPa Calm     92 % 0.0 mm 0.0 W/m2 CLR
02:17 4.3 °C 3.3 °C 1018.5 hPa Calm     93 % 0.0 mm 0.0 W/m2 CLR
02:22 4.3 °C 3.3 °C 1018.5 hPa Calm     93 % 0.0 mm 0.0 W/m2 CLR
02:27 4.1 °C 2.9 °C 1018.5 hPa Calm     92 % 0.0 mm 0.0 W/m2 CLR
02:32 3.9 °C 2.8 °C 1018.2 hPa Calm     92 % 0.0 mm 0.0 W/m2 CLR
02:37 3.8 °C 2.8 °C 1018.5 hPa Calm     93 % 0.0 mm 0.0 W/m2 CLR
02:42 3.7 °C 2.7 °C 1018.5 hPa Calm     93 % 0.0 mm 0.0 W/m2 CLR
02:47 3.7 °C 2.7 °C 1018.5 hPa SSW 5.6 km/h   93 % 0.0 mm 0.0 W/m2 CLR
02:52 3.7 °C 2.7 °C 1018.5 hPa Calm     93 % 0.0 mm 0.0 W/m2 CLR
02:57 3.6 °C 2.6 °C 1018.5 hPa Calm     93 % 0.0 mm 0.0 W/m2 CLR
03:02 3.5 °C 2.5 °C 1018.5 hPa Calm     93 % 0.0 mm 0.0 W/m2 CLR
03:07 3.4 °C 2.4 °C 1018.8 hPa Calm     93 % 0.0 mm 0.0 W/m2 CLR
03:12 3.4 °C 2.4 °C 1018.8 hPa Calm     93 % 0.0 mm 0.0 W/m2 CLR
03:17 3.3 °C 2.3 °C 1018.5 hPa Calm     93 % 0.0 mm 0.0 W/m2 CLR
03:22 3.3 °C 2.3 °C 1018.5 hPa Calm     93 % 0.0 mm 0.0 W/m2 CLR
03:27 3.3 °C 2.3 °C 1018.5 hPa Calm     93 % 0.0 mm 0.0 W/m2 CLR
03:31 3.4 °C 2.4 °C 1018.5 hPa Calm     93 % 0.0 mm 0.0 W/m2 CLR
03:36 3.5 °C 2.5 °C 1018.5 hPa Calm     93 % 0.0 mm 0.0 W/m2 CLR
03:41 3.6 °C 2.6 °C 1018.5 hPa Calm     93 % 0.0 mm 0.0 W/m2 CLR
03:46 3.4 °C 2.4 °C 1018.2 hPa Calm     93 % 0.0 mm 0.0 W/m2 CLR
03:51 3.4 °C 2.4 °C 1018.2 hPa Calm     93 % 0.0 mm 0.0 W/m2 CLR
03:56 3.4 °C 2.4 °C 1018.5 hPa Calm     93 % 0.0 mm 0.0 W/m2 CLR
04:01 3.4 °C 2.4 °C 1018.5 hPa Calm     93 % 0.0 mm 0.0 W/m2 CLR
04:06 3.2 °C 2.2 °C 1018.5 hPa Calm     93 % 0.0 mm 0.0 W/m2 CLR
04:11 2.9 °C 1.9 °C 1018.2 hPa Calm     93 % 0.0 mm 0.0 W/m2 CLR
04:16 2.8 °C 1.8 °C 1018.2 hPa Calm     93 % 0.0 mm 0.0 W/m2 CLR
04:21 2.8 °C 1.8 °C 1018.2 hPa Calm     93 % 0.0 mm 0.0 W/m2 CLR
04:26 3.1 °C 2.2 °C 1017.8 hPa Calm     94 % 0.0 mm 0.0 W/m2 CLR
04:31 3.2 °C 2.3 °C 1017.8 hPa Calm     94 % 0.0 mm 0.0 W/m2 CLR
04:36 3.2 °C 2.2 °C 1018.2 hPa Calm     93 % 0.0 mm 0.0 W/m2 CLR
04:41 3.1 °C 2.1 °C 1018.2 hPa Calm     93 % 0.0 mm 0.0 W/m2 CLR
04:46 2.8 °C 1.8 °C 1017.8 hPa Calm     93 % 0.0 mm 0.0 W/m2 CLR
04:51 2.6 °C 1.6 °C 1017.8 hPa Calm     93 % 0.0 mm 0.0 W/m2 CLR
04:56 2.5 °C 1.5 °C 1017.8 hPa Calm     93 % 0.0 mm 0.0 W/m2 CLR
05:01 2.4 °C 1.4 °C 1017.8 hPa Calm     93 % 0.0 mm 0.0 W/m2 CLR
05:06 2.3 °C 1.3 °C 1017.8 hPa Calm     93 % 0.0 mm 0.0 W/m2 CLR
05:11 2.4 °C 1.5 °C 1017.8 hPa Calm     94 % 0.0 mm 0.0 W/m2 CLR
05:16 2.3 °C 1.4 °C 1017.8 hPa Calm     94 % 0.0 mm 0.0 W/m2 CLR
05:21 2.2 °C 1.2 °C 1017.8 hPa Calm     93 % 0.0 mm 0.0 W/m2 CLR
05:26 2.2 °C 1.2 °C 1017.8 hPa Calm     93 % 0.3 mm 0.0 W/m2 RA
05:31 2.1 °C 1.1 °C 1018.2 hPa Calm     93 % 0.3 mm 0.0 W/m2
05:36 2.1 °C 1.2 °C 1017.8 hPa Calm     94 % 0.3 mm 0.0 W/m2 CLR
05:41 2.2 °C 1.3 °C 1017.8 hPa Calm     94 % 0.3 mm 0.0 W/m2 CLR
05:46 2.3 °C 1.4 °C 1017.8 hPa Calm     94 % 0.3 mm 0.0 W/m2 CLR
05:51 2.3 °C 1.4 °C 1017.8 hPa SW 3.7 km/h 3.7 km/h 94 % 0.3 mm 0.0 W/m2 CLR
05:56 2.4 °C 1.5 °C 1017.8 hPa Calm     94 % 0.3 mm 0.0 W/m2 CLR
06:01 2.4 °C 1.6 °C 1017.8 hPa Calm     94 % 0.3 mm 0.0 W/m2 CLR
06:06 2.4 °C 1.6 °C 1017.5 hPa Calm     94 % 0.3 mm 0.0 W/m2 CLR
06:11 2.5 °C 1.6 °C 1017.5 hPa Calm     94 % 0.3 mm 0.0 W/m2 CLR
06:16 2.6 °C 1.7 °C 1017.5 hPa Calm     94 % 0.3 mm 0.0 W/m2 CLR
06:21 2.5 °C 1.6 °C 1017.5 hPa Calm     94 % 0.3 mm 0.0 W/m2 CLR
06:26 2.4 °C 1.6 °C 1017.2 hPa Calm     94 % 0.0 mm 0.0 W/m2 CLR
06:31 2.5 °C 1.6 °C 1017.5 hPa Calm     94 % 0.0 mm 0.0 W/m2 CLR
06:36 2.6 °C 1.7 °C 1017.5 hPa Calm     94 % 0.0 mm 0.0 W/m2 CLR
06:41 2.5 °C 1.6 °C 1017.2 hPa Calm     94 % 0.0 mm 0.0 W/m2 CLR
06:46 2.4 °C 1.5 °C 1017.2 hPa Calm     94 % 0.0 mm 0.0 W/m2 CLR
06:51 2.4 °C 1.6 °C 1017.2 hPa Calm     94 % 0.0 mm 0.0 W/m2 CLR
06:56 2.6 °C 1.7 °C 1016.8 hPa Calm     94 % 0.0 mm 0.0 W/m2 CLR
07:01 2.7 °C 1.8 °C 1016.5 hPa Calm     94 % 0.0 mm 0.0 W/m2 CLR
07:06 2.9 °C 2.1 °C 1016.1 hPa SE 5.6 km/h 5.6 km/h 94 % 0.0 mm 0.0 W/m2 CLR
07:11 3.2 °C 2.3 °C 1016.8 hPa East 1.9 km/h 1.9 km/h 94 % 0.0 mm 0.0 W/m2 CLR
07:16 3.4 °C 2.5 °C 1017.2 hPa Calm     94 % 0.0 mm 0.0 W/m2 CLR
07:21 3.4 °C 2.6 °C 1016.8 hPa Calm     94 % 0.0 mm 0.0 W/m2 CLR
07:26 3.4 °C 2.6 °C 1017.2 hPa Calm     94 % 0.0 mm 0.0 W/m2 CLR
07:31 3.6 °C 2.7 °C 1017.5 hPa NNW 5.6 km/h 5.6 km/h 94 % 0.0 mm 0.0 W/m2 CLR
07:36 3.6 °C 2.7 °C 1017.5 hPa WSW 3.2 km/h   94 % 0.0 mm 0.0 W/m2 CLR
07:41 3.4 °C 2.5 °C 1017.5 hPa WSW 9.3 km/h 9.3 km/h 94 % 0.0 mm 0.0 W/m2 CLR
07:46 3.4 °C 2.6 °C 1017.2 hPa SW 6.4 km/h 6.4 km/h 94 % 0.0 mm 0.0 W/m2 CLR
07:51 3.6 °C 2.7 °C 1016.8 hPa Calm     94 % 0.0 mm 0.0 W/m2 CLR
07:56 3.7 °C 2.8 °C 1016.5 hPa Calm     94 % 0.0 mm 0.0 W/m2 CLR
08:01 3.7 °C 2.8 °C 1016.5 hPa Calm     94 % 0.0 mm 0.0 W/m2 OVC
08:06 3.7 °C 2.8 °C 1016.5 hPa Calm     94 % 0.0 mm 0.0 W/m2 OVC
08:11 3.8 °C 2.9 °C 1016.1 hPa Calm   1.3 km/h 94 % 0.0 mm 0.0 W/m2 OVC
08:16 3.9 °C 3.1 °C 1016.1 hPa Calm     94 % 0.0 mm 0.0 W/m2 OVC
08:19 4.1 °C 3.2 °C 1016.1 hPa Calm     94 % 0.0 mm 0.0 W/m2 OVC
08:24 4.1 °C 3.2 °C 1016.1 hPa Calm     94 % 0.0 mm 0.0 W/m2 OVC
08:29 4.3 °C 3.4 °C 1016.5 hPa Calm     94 % 0.0 mm 0.0 W/m2 OVC
08:34 4.6 °C 3.7 °C 1016.5 hPa Calm     94 % 0.0 mm 9.0 W/m2 BKN
08:39 4.7 °C 3.8 °C 1016.5 hPa Calm     94 % 0.0 mm 14.0 W/m2 BKN
08:44 4.7 °C 3.7 °C 1016.8 hPa Calm     93 % 0.0 mm 18.0 W/m2 BKN
08:49 4.7 °C 3.6 °C 1016.8 hPa Calm     93 % 0.0 mm 26.0 W/m2 BKN
08:54 4.6 °C 3.6 °C 1016.8 hPa Calm     93 % 0.0 mm 23.0 W/m2 BKN
08:59 4.6 °C 3.4 °C 1016.8 hPa Calm     92 % 0.0 mm 28.0 W/m2 BKN
09:04 4.5 °C 3.4 °C 1016.8 hPa Calm     93 % 0.0 mm 28.0 W/m2 BKN
09:09 4.6 °C 3.5 °C 1017.2 hPa Calm     93 % 0.0 mm 26.0 W/m2 BKN
09:14 4.6 °C 3.4 °C 1016.8 hPa Calm     92 % 0.0 mm 30.0 W/m2 BKN
09:19 4.6 °C 3.4 °C 1016.8 hPa Calm     92 % 0.0 mm 30.0 W/m2 BKN
09:24 4.4 °C 3.3 °C 1017.2 hPa Calm     92 % 0.0 mm 32.0 W/m2 BKN
09:29 4.4 °C 3.2 °C 1017.2 hPa Calm     92 % 0.0 mm 42.0 W/m2 BKN
09:34 4.4 °C 3.3 °C 1016.8 hPa Calm     93 % 0.0 mm 60.0 W/m2 BKN
09:39 4.6 °C 3.5 °C 1016.8 hPa Calm     93 % 0.0 mm 65.0 W/m2 SCT
09:44 4.7 °C 3.7 °C 1016.8 hPa Calm     93 % 0.0 mm 120.0 W/m2 FEW
09:49 5.0 °C 3.9 °C 1016.8 hPa Calm     93 % 0.0 mm 146.0 W/m2 CLR
09:54 5.2 °C 4.2 °C 1016.5 hPa Calm     93 % 0.0 mm 163.0 W/m2 CLR
09:59 5.7 °C 4.6 °C 1016.5 hPa Calm     93 % 0.0 mm 211.0 W/m2 CLR
10:04 6.2 °C 5.1 °C 1016.1 hPa Calm     93 % 0.0 mm 234.0 W/m2 CLR
10:09 6.5 °C 5.4 °C 1015.8 hPa Calm     93 % 0.0 mm 185.0 W/m2 CLR
10:14 6.6 °C 5.4 °C 1015.8 hPa Calm     92 % 0.0 mm 265.0 W/m2 CLR
10:19 6.8 °C 5.4 °C 1015.5 hPa Calm     91 % 0.0 mm 283.0 W/m2 CLR
10:24 7.1 °C 5.7 °C 1015.8 hPa Calm     91 % 0.0 mm 327.0 W/m2 CLR
10:29 7.4 °C 6.1 °C 1015.5 hPa Calm     91 % 0.0 mm 348.0 W/m2 CLR
10:34 8.1 °C 6.4 °C 1015.8 hPa Calm     89 % 0.0 mm 387.0 W/m2 CLR
10:39 8.8 °C 6.8 °C 1015.8 hPa Calm     87 % 0.0 mm 367.0 W/m2 CLR
10:44 9.6 °C 7.3 °C 1015.5 hPa Calm     86 % 0.0 mm 360.0 W/m2 CLR
10:49 10.1 °C 7.7 °C 1015.8 hPa Calm     85 % 0.0 mm 373.0 W/m2 CLR
10:54 10.5 °C 7.4 °C 1015.5 hPa Calm     81 % 0.0 mm 387.0 W/m2 CLR
10:59 11.0 °C 6.9 °C 1015.1 hPa South 5.6 km/h 5.6 km/h 76 % 0.0 mm 388.0 W/m2 CLR
11:04 11.6 °C 6.7 °C 1015.1 hPa South 11.1 km/h 11.1 km/h 72 % 0.0 mm 424.0 W/m2 CLR
11:09 12.3 °C 7.4 °C 1015.1 hPa South 7.4 km/h 7.4 km/h 72 % 0.0 mm 494.0 W/m2 CLR
11:14 12.8 °C 6.6 °C 1015.1 hPa South 9.3 km/h 9.3 km/h 66 % 0.0 mm 563.0 W/m2 CLR
11:19 13.3 °C 7.9 °C 1015.1 hPa SSE 7.4 km/h 7.4 km/h 70 % 0.0 mm 534.0 W/m2 CLR
11:24 13.4 °C 7.7 °C 1015.1 hPa SSE 7.4 km/h 7.4 km/h 68 % 0.0 mm 332.0 W/m2 CLR
11:29 13.5 °C 6.6 °C 1015.1 hPa SSE 14.8 km/h 14.8 km/h 63 % 0.0 mm 190.0 W/m2 CLR
11:34 13.6 °C 6.4 °C 1014.8 hPa SSE 5.6 km/h 5.6 km/h 62 % 0.0 mm 156.0 W/m2 CLR
11:39 13.5 °C 6.3 °C 1014.8 hPa South 6.4 km/h 6.4 km/h 62 % 0.0 mm 134.0 W/m2 CLR
11:44 13.4 °C 6.7 °C 1014.4 hPa South 9.3 km/h 9.3 km/h 64 % 0.0 mm 142.0 W/m2 CLR
11:49 13.4 °C 6.7 °C 1014.4 hPa SSW 5.6 km/h 5.6 km/h 64 % 0.0 mm 142.0 W/m2 CLR
11:54 13.4 °C 6.5 °C 1014.4 hPa SSW 7.4 km/h 7.4 km/h 63 % 0.0 mm 155.0 W/m2 CLR
11:59 13.4 °C 6.6 °C 1014.8 hPa SW 5.6 km/h 5.6 km/h 63 % 0.0 mm 211.0 W/m2 CLR
12:04 13.5 °C 7.3 °C 1014.4 hPa Calm     66 % 0.0 mm 264.0 W/m2 CLR
12:09 13.6 °C 7.6 °C 1014.4 hPa Calm     67 % 0.0 mm 181.0 W/m2 CLR
12:14 13.7 °C 7.4 °C 1014.4 hPa NW 7.4 km/h 7.4 km/h 66 % 0.0 mm 153.0 W/m2 CLR
12:15 13.7 °C 7.0 °C 1014.4 hPa NW 7.4 km/h 7.4 km/h 64 % 0.0 mm 153.0 W/m2 CLR
12:20 13.8 °C 7.1 °C 1014.4 hPa WNW 9.7 km/h 9.7 km/h 64 % 0.0 mm 193.0 W/m2 CLR
12:25 14.3 °C 7.4 °C 1014.4 hPa WNW 9.3 km/h 9.3 km/h 63 % 0.0 mm 513.0 W/m2 CLR
12:30 15.1 °C 7.1 °C 1014.1 hPa WNW 18.5 km/h 18.5 km/h 59 % 0.0 mm 540.0 W/m2 CLR
12:35 15.6 °C 7.6 °C 1014.1 hPa WNW 11.1 km/h 11.1 km/h 59 % 0.0 mm 531.0 W/m2 CLR
12:40 16.0 °C 6.7 °C 1014.1 hPa West 16.7 km/h 16.7 km/h 54 % 0.0 mm 485.0 W/m2 CLR
12:45 16.2 °C 6.6 °C 1014.4 hPa WNW 25.9 km/h 25.9 km/h 53 % 0.0 mm 541.0 W/m2 CLR
12:50 16.4 °C 7.8 °C 1014.1 hPa WNW 22.2 km/h 22.2 km/h 57 % 0.0 mm 554.0 W/m2 CLR
12:55 16.6 °C 7.5 °C 1014.1 hPa WNW 25.9 km/h 25.9 km/h 55 % 0.0 mm 693.0 W/m2 CLR
13:00 16.7 °C 6.8 °C 1014.1 hPa West 31.5 km/h 31.5 km/h 52 % 0.0 mm 714.0 W/m2 CLR
13:05 16.8 °C 6.6 °C 1014.1 hPa West 25.9 km/h 25.9 km/h 51 % 0.0 mm 359.0 W/m2 CLR
13:10 16.7 °C 7.6 °C 1014.1 hPa WNW 14.8 km/h 14.8 km/h 55 % 0.0 mm 285.0 W/m2 CLR
13:15 16.4 °C 6.8 °C 1014.1 hPa NW 13.0 km/h 13.0 km/h 53 % 0.0 mm 137.0 W/m2 CLR
13:20 16.2 °C 7.4 °C 1014.1 hPa NW 11.1 km/h 11.1 km/h 56 % 0.0 mm 139.0 W/m2 CLR
13:25 16.1 °C 7.8 °C 1013.8 hPa Calm     58 % 0.0 mm 149.0 W/m2 CLR
13:30 16.1 °C 7.3 °C 1013.8 hPa WNW 5.6 km/h   56 % 0.0 mm 251.0 W/m2 CLR
13:35 16.2 °C 6.8 °C 1013.8 hPa West 9.3 km/h 9.3 km/h 54 % 0.0 mm 250.0 W/m2 CLR
13:40 16.2 °C 7.4 °C 1013.8 hPa West 11.3 km/h 11.3 km/h 56 % 0.0 mm 169.0 W/m2 CLR
13:45 16.2 °C 7.4 °C 1013.8 hPa WNW 14.8 km/h 14.8 km/h 56 % 0.0 mm 234.0 W/m2 CLR
13:50 16.5 °C 7.9 °C 1013.8 hPa NW 14.8 km/h 14.8 km/h 57 % 0.0 mm 345.0 W/m2 CLR
13:55 17.1 °C 7.4 °C 1013.8 hPa WNW 22.5 km/h 22.5 km/h 53 % 0.0 mm 262.0 W/m2 CLR
14:00 17.4 °C 6.6 °C 1013.8 hPa West 38.9 km/h 38.9 km/h 49 % 0.0 mm 682.0 W/m2 CLR
14:05 17.5 °C 6.9 °C 1013.4 hPa WNW 46.3 km/h 46.3 km/h 50 % 0.0 mm 243.0 W/m2 CLR
14:10 16.9 °C 7.8 °C 1013.8 hPa NW 42.6 km/h 42.6 km/h 55 % 0.0 mm 512.0 W/m2 CLR
14:15 15.8 °C 7.6 °C 1013.8 hPa NNW 25.7 km/h 25.7 km/h 58 % 0.0 mm 227.0 W/m2 CLR
14:20 15.1 °C 7.4 °C 1014.1 hPa North 29.6 km/h 29.6 km/h 60 % 0.0 mm 149.0 W/m2 CLR
14:25 14.6 °C 7.8 °C 1014.1 hPa North 20.4 km/h 20.4 km/h 64 % 0.0 mm 113.0 W/m2 CLR
14:30 14.1 °C 7.4 °C 1014.1 hPa North 25.9 km/h 25.9 km/h 64 % 0.0 mm 149.0 W/m2 CLR
14:35 13.7 °C 7.5 °C 1014.4 hPa North 29.6 km/h 29.6 km/h 66 % 0.0 mm 162.0 W/m2 CLR
14:40 13.4 °C 7.7 °C 1014.4 hPa North 24.1 km/h 24.1 km/h 68 % 0.0 mm 239.0 W/m2 CLR
14:45 13.2 °C 8.0 °C 1014.4 hPa North 18.5 km/h 18.5 km/h 71 % 0.0 mm 160.0 W/m2 CLR
14:50 13.0 °C 7.9 °C 1014.4 hPa North 20.4 km/h 20.4 km/h 71 % 0.0 mm 156.0 W/m2 CLR
14:55 12.9 °C 7.9 °C 1014.4 hPa North 22.2 km/h 22.2 km/h 72 % 0.0 mm 216.0 W/m2 CLR
15:00 12.8 °C 8.1 °C 1014.4 hPa North 16.7 km/h 16.7 km/h 73 % 0.0 mm 153.0 W/m2 CLR
15:05 12.8 °C 7.8 °C 1014.4 hPa North 14.8 km/h 14.8 km/h 72 % 0.0 mm 169.0 W/m2 CLR
15:10 12.8 °C 7.9 °C 1014.4 hPa North 18.5 km/h 18.5 km/h 72 % 0.0 mm 167.0 W/m2 CLR
15:15 13.0 °C 7.9 °C 1014.4 hPa North 18.5 km/h 18.5 km/h 71 % 0.0 mm 561.0 W/m2 CLR
15:20 13.3 °C 8.3 °C 1014.4 hPa North 18.5 km/h 18.5 km/h 72 % 0.0 mm 197.0 W/m2 CLR
15:25 13.4 °C 8.3 °C 1014.4 hPa North 3.7 km/h 3.7 km/h 71 % 0.0 mm 510.0 W/m2 CLR
15:30 13.6 °C 8.0 °C 1014.4 hPa North 14.8 km/h 14.8 km/h 69 % 0.0 mm 436.0 W/m2 CLR
15:35 13.6 °C 8.2 °C 1014.8 hPa NNE 5.6 km/h 5.6 km/h 70 % 0.0 mm 464.0 W/m2 CLR
15:40 13.8 °C 8.4 °C 1014.8 hPa North 8.0 km/h 8.0 km/h 70 % 0.0 mm 490.0 W/m2 CLR
15:45 14.1 °C 8.9 °C 1014.8 hPa Calm     71 % 0.0 mm 390.0 W/m2 CLR
15:50 14.3 °C 8.3 °C 1014.8 hPa NNW 11.1 km/h 11.1 km/h 67 % 0.0 mm 381.0 W/m2 CLR
15:55 14.1 °C 8.3 °C 1014.8 hPa North 5.6 km/h 5.6 km/h 68 % 0.0 mm 174.0 W/m2 CLR
16:00 13.9 °C 8.5 °C 1014.8 hPa North 3.7 km/h 3.7 km/h 70 % 0.0 mm 123.0 W/m2 CLR
16:05 13.8 °C 8.2 °C 1014.8 hPa Calm     69 % 0.0 mm 109.0 W/m2 CLR
16:10 13.7 °C 8.1 °C 1014.8 hPa Calm     69 % 0.0 mm 109.0 W/m2 CLR
16:15 13.6 °C 8.0 °C 1014.8 hPa Calm     69 % 0.0 mm 116.0 W/m2 CLR
16:20 13.6 °C 8.0 °C 1014.8 hPa Calm     69 % 0.0 mm 102.0 W/m2 CLR
16:25 13.6 °C 8.0 °C 1014.8 hPa Calm     69 % 0.0 mm 91.0 W/m2 CLR
16:30 13.5 °C 7.9 °C 1014.4 hPa Calm     69 % 0.0 mm 86.0 W/m2 CLR
16:35 13.6 °C 8.2 °C 1014.8 hPa Calm     70 % 0.0 mm 83.0 W/m2 CLR
16:40 13.5 °C 8.6 °C 1015.1 hPa Calm     72 % 0.0 mm 76.0 W/m2 FEW
16:45 13.5 °C 8.6 °C 1015.1 hPa Calm     72 % 0.0 mm 62.0 W/m2 FEW
16:50 13.4 °C 8.4 °C 1015.1 hPa Calm     72 % 0.0 mm 56.0 W/m2 FEW
16:55 13.3 °C 8.2 °C 1015.1 hPa Calm     71 % 0.0 mm 53.0 W/m2 SCT
17:00 13.2 °C 7.9 °C 1015.1 hPa Calm     70 % 0.0 mm 62.0 W/m2 SCT
17:05 13.1 °C 8.1 °C 1015.5 hPa Calm     72 % 0.0 mm 58.0 W/m2 SCT
17:10 12.9 °C 7.9 °C 1015.1 hPa Calm     72 % 0.0 mm 37.0 W/m2 SCT
17:15 12.7 °C 7.8 °C 1015.1 hPa Calm     72 % 0.0 mm 40.0 W/m2 BKN
17:20 12.7 °C 7.9 °C 1015.1 hPa Calm     73 % 0.0 mm 40.0 W/m2 BKN
17:26 12.7 °C 8.2 °C 1015.1 hPa Calm     74 % 0.0 mm 35.0 W/m2 BKN
17:31 12.6 °C 8.1 °C 1015.1 hPa Calm     74 % 0.0 mm 28.0 W/m2 BKN
17:36 12.6 °C 8.2 °C 1015.1 hPa Calm     75 % 0.0 mm 25.0 W/m2 BKN
17:41 12.4 °C 7.9 °C 1015.1 hPa Calm     74 % 0.0 mm 18.0 W/m2 BKN
17:43 12.4 °C 7.9 °C 1015.1 hPa Calm     74 % 0.0 mm 14.0 W/m2 BKN
17:48 12.3 °C 7.8 °C 1015.1 hPa Calm     74 % 0.0 mm 14.0 W/m2 BKN
17:53 12.3 °C 7.8 °C 1015.5 hPa Calm     74 % 0.0 mm 11.0 W/m2 BKN
17:58 12.2 °C 7.7 °C 1015.5 hPa Calm     74 % 0.0 mm 9.0 W/m2 BKN
18:03 12.1 °C 8.0 °C 1015.5 hPa Calm     76 % 0.0 mm 5.0 W/m2 OVC
18:08 12.0 °C 7.9 °C 1015.5 hPa Calm     76 % 0.0 mm 0.0 W/m2 OVC
18:13 11.9 °C 8.0 °C 1015.5 hPa Calm     77 % 0.0 mm 0.0 W/m2 OVC
18:18 11.8 °C 7.9 °C 1015.5 hPa Calm     77 % 0.0 mm 0.0 W/m2 OVC
18:23 11.7 °C 7.8 °C 1015.5 hPa Calm     77 % 0.0 mm 0.0 W/m2 OVC
18:28 11.6 °C 7.9 °C 1015.5 hPa Calm     78 % 0.0 mm 0.0 W/m2 OVC
18:33 11.6 °C 7.8 °C 1015.8 hPa Calm     78 % 0.0 mm 0.0 W/m2 CLR
18:38 11.6 °C 7.8 °C 1015.8 hPa Calm     78 % 0.0 mm 0.0 W/m2 CLR
18:43 11.5 °C 7.8 °C 1015.8 hPa Calm     78 % 0.0 mm 0.0 W/m2 CLR
18:48 11.5 °C 7.8 °C 1015.8 hPa Calm     78 % 0.0 mm 0.0 W/m2 CLR
18:53 11.4 °C 7.9 °C 1016.1 hPa Calm     79 % 0.0 mm 0.0 W/m2 CLR
18:58 11.2 °C 7.9 °C 1016.1 hPa Calm     80 % 0.0 mm 0.0 W/m2 CLR
19:03 11.1 °C 7.9 °C 1016.1 hPa Calm     81 % 0.0 mm 0.0 W/m2 CLR
19:08 10.9 °C 7.9 °C 1016.1 hPa Calm     82 % 0.0 mm 0.0 W/m2 CLR
19:13 10.8 °C 7.9 °C 1016.1 hPa Calm     82 % 0.0 mm 0.0 W/m2 CLR
19:18 10.8 °C 8.0 °C 1016.1 hPa Calm     83 % 0.0 mm 0.0 W/m2 CLR
19:23 10.7 °C 7.9 °C 1016.5 hPa Calm     83 % 0.0 mm 0.0 W/m2 CLR
19:28 10.7 °C 7.9 °C 1016.5 hPa Calm     83 % 0.0 mm 0.0 W/m2 CLR
19:33 10.8 °C 8.0 °C 1016.1 hPa Calm     83 % 0.0 mm 0.0 W/m2 CLR
19:38 10.6 °C 7.9 °C 1016.1 hPa Calm     84 % 0.0 mm 0.0 W/m2 CLR
19:43 10.3 °C 7.9 °C 1016.1 hPa Calm     85 % 0.0 mm 0.0 W/m2 CLR
19:48 10.2 °C 8.0 °C 1016.1 hPa Calm     86 % 0.0 mm 0.0 W/m2 CLR
19:53 10.1 °C 7.9 °C 1016.5 hPa WSW 7.4 km/h 7.4 km/h 86 % 0.0 mm 0.0 W/m2 CLR
19:58 10.1 °C 7.9 °C 1016.5 hPa Calm     86 % 0.0 mm 0.0 W/m2 CLR
20:03 10.2 °C 8.0 °C 1016.5 hPa Calm     86 % 0.0 mm 0.0 W/m2 CLR
20:08 10.1 °C 7.9 °C 1016.5 hPa Calm     86 % 0.0 mm 0.0 W/m2 CLR
20:13 10.1 °C 7.8 °C 1016.5 hPa Calm     86 % 0.0 mm 0.0 W/m2 CLR
20:18 10.0 °C 7.6 °C 1016.5 hPa Calm     85 % 0.0 mm 0.0 W/m2 CLR
20:23 10.0 °C 7.6 °C 1016.5 hPa Calm     85 % 0.0 mm 0.0 W/m2 CLR
20:28 10.3 °C 7.4 °C 1016.5 hPa Calm     82 % 0.0 mm 0.0 W/m2 CLR
20:33 10.5 °C 7.7 °C 1016.1 hPa Calm     83 % 0.0 mm 0.0 W/m2 CLR
20:38 10.3 °C 7.6 °C 1016.1 hPa Calm     83 % 0.0 mm 0.0 W/m2 CLR
20:43 10.3 °C 7.3 °C 1016.1 hPa Calm     82 % 0.0 mm 0.0 W/m2 CLR
20:48 10.2 °C 7.2 °C 1016.1 hPa Calm     82 % 0.0 mm 0.0 W/m2 CLR
20:53 10.1 °C 7.2 °C 1016.5 hPa Calm     82 % 0.0 mm 0.0 W/m2 CLR
20:58 10.1 °C 6.9 °C 1016.5 hPa Calm     81 % 0.0 mm 0.0 W/m2 CLR
21:03 10.3 °C 7.1 °C 1016.1 hPa Calm     80 % 0.0 mm 0.0 W/m2 CLR
21:08 10.6 °C 6.9 °C 1016.1 hPa WSW 1.9 km/h   78 % 0.0 mm 0.0 W/m2 CLR
21:13 10.9 °C 6.8 °C 1016.1 hPa West 5.6 km/h 5.6 km/h 76 % 0.0 mm 0.0 W/m2 CLR
21:18 11.1 °C 6.8 °C 1016.1 hPa West 5.6 km/h 5.6 km/h 75 % 0.0 mm 0.0 W/m2 CLR
21:23 11.3 °C 7.2 °C 1016.1 hPa Calm     76 % 0.0 mm 0.0 W/m2 CLR
21:28 11.1 °C 6.8 °C 1016.1 hPa Calm     75 % 0.0 mm 0.0 W/m2 CLR
21:33 10.8 °C 6.7 °C 1016.1 hPa West 3.7 km/h   76 % 0.0 mm 0.0 W/m2 CLR
21:38 10.6 °C 6.7 °C 1016.1 hPa Calm     77 % 0.0 mm 0.0 W/m2 CLR
21:43 10.4 °C 6.6 °C 1016.1 hPa Calm     77 % 0.0 mm 0.0 W/m2 CLR
21:48 10.2 °C 6.6 °C 1016.1 hPa Calm     78 % 0.0 mm 0.0 W/m2 CLR
21:53 10.1 °C 6.6 °C 1015.8 hPa Calm     79 % 0.0 mm 0.0 W/m2 CLR
21:58 9.9 °C 6.4 °C 1015.8 hPa Calm     79 % 0.0 mm 0.0 W/m2 CLR
22:04 9.9 °C 6.4 °C 1015.8 hPa Calm     79 % 0.0 mm 0.0 W/m2 CLR
22:08 9.8 °C 6.5 °C 1015.8 hPa Calm     80 % 0.0 mm 0.0 W/m2 CLR
22:14 9.6 °C 6.3 °C 1015.5 hPa Calm     80 % 0.0 mm 0.0 W/m2 CLR
22:19 9.6 °C 6.4 °C 1015.8 hPa Calm     81 % 0.0 mm 0.0 W/m2 CLR
22:24 9.4 °C 6.3 °C 1015.8 hPa Calm     81 % 0.0 mm 0.0 W/m2 CLR
22:29 9.3 °C 6.2 °C 1015.8 hPa Calm     81 % 0.0 mm 0.0 W/m2 CLR
22:34 9.2 °C 6.3 °C 1015.5 hPa Calm     82 % 0.0 mm 0.0 W/m2 CLR
22:39 9.1 °C 6.2 °C 1015.5 hPa Calm     82 % 0.0 mm 0.0 W/m2 CLR
22:44 9.0 °C 6.3 °C 1015.5 hPa Calm     83 % 0.0 mm 0.0 W/m2 CLR
22:49 8.9 °C 6.2 °C 1015.5 hPa Calm     83 % 0.0 mm 0.0 W/m2 CLR
22:54 9.2 °C 6.1 °C 1015.1 hPa SW 1.9 km/h 1.9 km/h 81 % 0.0 mm 0.0 W/m2 CLR
22:59 9.4 °C 6.1 °C 1015.5 hPa WSW 3.7 km/h   80 % 0.0 mm 0.0 W/m2 CLR
23:04 9.6 °C 6.1 °C 1015.1 hPa Calm     79 % 0.0 mm 0.0 W/m2 CLR
23:09 9.5 °C 6.1 °C 1015.1 hPa Calm     79 % 0.0 mm 0.0 W/m2 CLR
23:14 9.2 °C 5.9 °C 1015.1 hPa Calm     80 % 0.0 mm 0.0 W/m2 CLR
23:19 8.9 °C 5.8 °C 1015.1 hPa Calm     81 % 0.0 mm 0.0 W/m2 CLR
23:24 8.6 °C 5.7 °C 1014.8 hPa Calm     82 % 0.0 mm 0.0 W/m2 CLR
23:29 8.4 °C 5.7 °C 1014.8 hPa West 4.8 km/h 4.8 km/h 83 % 0.0 mm 0.0 W/m2 CLR
23:34 8.6 °C 5.9 °C 1014.4 hPa WSW 7.4 km/h 7.4 km/h 83 % 0.0 mm 0.0 W/m2 CLR
23:39 8.9 °C 6.0 °C 1014.4 hPa Calm     82 % 0.0 mm 0.0 W/m2 CLR
23:44 8.7 °C 5.8 °C 1014.4 hPa Calm     82 % 0.0 mm 0.0 W/m2 CLR
23:49 8.7 °C 5.8 °C 1014.8 hPa Calm     82 % 0.0 mm 0.0 W/m2 CLR
23:54 8.6 °C 5.9 °C 1014.4 hPa Calm     83 % 0.0 mm 0.0 W/m2 CLR
23:59 8.4 °C 5.7 °C 1014.4 hPa Calm     83 % 0.0 mm 0.0 W/m2 CLR
Lo Temps de Massalio
Compliments of Weather Underground - 1.25 mb